createdAt,value
2019-05-19T00:01:59.759Z,90.70
2019-05-19T00:04:28.726Z,88.80
2019-05-19T00:06:57.715Z,87.42
2019-05-19T00:09:26.757Z,90.57
2019-05-19T00:11:55.730Z,87.17
2019-05-19T00:14:24.786Z,89.35
2019-05-19T00:16:53.921Z,87.30
2019-05-19T00:19:26.837Z,90.10
2019-05-19T00:21:53.576Z,90.35
2019-05-19T00:24:22.639Z,91.85
2019-05-19T00:26:51.887Z,88.35
2019-05-19T00:29:20.857Z,94.25
2019-05-19T00:31:49.912Z,94.92
2019-05-19T00:34:18.872Z,89.90
2019-05-19T00:36:47.862Z,94.13
2019-05-19T00:39:16.903Z,97.27
2019-05-19T00:41:46.271Z,95.87
2019-05-19T00:44:15.591Z,101.58
2019-05-19T00:46:44.713Z,111.40
2019-05-19T00:49:13.706Z,108.72
2019-05-19T00:51:43.947Z,106.63
2019-05-19T00:54:13.097Z,104.95
2019-05-19T00:56:42.912Z,108.20
2019-05-19T00:59:12.594Z,103.35
2019-05-19T01:01:41.716Z,99.37
2019-05-19T01:04:10.686Z,106.92
2019-05-19T01:06:40.103Z,100.85
2019-05-19T01:09:09.150Z,100.05
2019-05-19T01:11:38.111Z,98.95
2019-05-19T01:14:07.399Z,100.60
2019-05-19T01:16:36.819Z,99.72
2019-05-19T01:19:06.211Z,102.65
2019-05-19T01:21:35.752Z,103.45
2019-05-19T01:24:04.881Z,102.42
2019-05-19T01:26:33.872Z,98.40
2019-05-19T01:29:02.911Z,101.65
2019-05-19T01:31:31.910Z,99.40
2019-05-19T01:34:00.959Z,97.75
2019-05-19T01:36:30.284Z,102.55
2019-05-19T01:38:59.325Z,103.38
2019-05-19T01:41:28.486Z,102.12
2019-05-19T01:43:57.527Z,99.50
2019-05-19T01:46:26.523Z,105.43
2019-05-19T01:48:55.575Z,99.62
2019-05-19T01:51:24.879Z,104.57
2019-05-19T01:53:54.174Z,99.47
2019-05-19T01:56:23.132Z,100.60
2019-05-19T01:58:52.150Z,100.72
2019-05-19T02:01:21.214Z,105.80
2019-05-19T02:03:50.183Z,102.60
2019-05-19T02:06:19.165Z,101.65
2019-05-19T02:08:48.205Z,101.78
2019-05-19T02:11:17.781Z,100.67
2019-05-19T02:13:46.755Z,102.58
2019-05-19T02:16:15.846Z,102.80
2019-05-19T02:18:44.829Z,104.35
2019-05-19T02:21:13.794Z,105.10
2019-05-19T02:23:42.779Z,102.87
2019-05-19T02:26:11.753Z,105.43
2019-05-19T02:28:40.740Z,105.75
2019-05-19T02:31:09.709Z,107.63
2019-05-19T02:33:38.790Z,106.63
2019-05-19T02:36:07.825Z,105.90
2019-05-19T02:38:36.858Z,104.55
2019-05-19T02:41:08.517Z,107.48
2019-05-19T02:43:38.289Z,109.75
2019-05-19T02:46:07.445Z,104.60
2019-05-19T02:48:38.444Z,102.02
2019-05-19T02:51:09.930Z,108.00
2019-05-19T02:53:39.514Z,109.57
2019-05-19T02:56:09.227Z,107.17
2019-05-19T02:58:38.771Z,109.27
2019-05-19T03:01:07.827Z,109.72
2019-05-19T03:03:36.903Z,104.80
2019-05-19T03:06:07.106Z,111.36
2019-05-19T03:08:36.159Z,110.03
2019-05-19T03:11:05.131Z,109.22
2019-05-19T03:13:34.155Z,109.20
2019-05-19T03:16:03.225Z,107.45
2019-05-19T03:18:32.281Z,108.57
2019-05-19T03:21:10.440Z,110.42
2019-05-19T03:23:31.996Z,110.70
2019-05-19T03:26:01.060Z,109.30
2019-05-19T03:28:30.113Z,116.65
2019-05-19T03:31:03.632Z,114.32
2019-05-19T03:33:34.652Z,109.60
2019-05-19T03:36:03.672Z,113.35
2019-05-19T03:38:35.556Z,115.67
2019-05-19T03:41:04.672Z,113.37
2019-05-19T03:43:33.804Z,117.60
2019-05-19T03:46:02.805Z,115.12
2019-05-19T03:48:31.876Z,108.00
2019-05-19T03:51:00.835Z,118.55
2019-05-19T03:53:30.301Z,113.68
2019-05-19T03:55:59.350Z,110.97
2019-05-19T03:58:28.325Z,111.15
2019-05-19T04:00:57.324Z,112.08
2019-05-19T04:03:26.709Z,114.03
2019-05-19T04:05:55.859Z,113.25
2019-05-19T04:08:24.839Z,114.22
2019-05-19T04:10:53.956Z,115.55
2019-05-19T04:13:23.007Z,112.52
2019-05-19T04:15:52.053Z,114.32
2019-05-19T04:18:21.162Z,113.22
2019-05-19T04:20:50.137Z,115.47
2019-05-19T04:23:19.212Z,109.67
2019-05-19T04:25:48.255Z,116.57
2019-05-19T04:28:17.224Z,119.42
2019-05-19T04:30:46.283Z,116.90
2019-05-19T04:33:15.333Z,113.50
2019-05-19T04:35:44.737Z,115.37
2019-05-19T04:38:13.710Z,114.60
2019-05-19T04:40:43.546Z,114.00
2019-05-19T04:43:12.531Z,112.57
2019-05-19T04:45:41.581Z,110.48
2019-05-19T04:48:10.601Z,114.82
2019-05-19T04:50:39.576Z,114.30
2019-05-19T04:53:08.632Z,111.75
2019-05-19T04:55:37.702Z,111.47
2019-05-19T04:58:06.747Z,115.97
2019-05-19T05:00:35.798Z,109.75
2019-05-19T05:03:05.235Z,110.75
2019-05-19T05:05:34.271Z,117.22
2019-05-19T05:08:03.310Z,106.50
2019-05-19T05:10:32.331Z,112.15
2019-05-19T05:13:01.403Z,110.57
2019-05-19T05:15:30.467Z,110.10
2019-05-19T05:17:59.529Z,115.57
2019-05-19T05:20:28.665Z,110.65
2019-05-19T05:22:57.643Z,109.85
2019-05-19T05:25:26.738Z,112.52
2019-05-19T05:27:55.711Z,110.08
2019-05-19T05:30:24.688Z,113.70
2019-05-19T05:32:54.265Z,109.80
2019-05-19T05:35:23.230Z,109.30
2019-05-19T05:37:52.242Z,114.82
2019-05-19T05:40:21.223Z,109.48
2019-05-19T05:42:50.269Z,112.37
2019-05-19T05:45:19.459Z,106.60
2019-05-19T05:47:48.586Z,105.30
2019-05-19T05:50:17.655Z,104.65
2019-05-19T05:52:46.641Z,113.10
2019-05-19T05:55:15.817Z,111.32
2019-05-19T05:57:44.832Z,108.12
2019-05-19T06:00:15.961Z,113.88
2019-05-19T06:02:45.223Z,111.30
2019-05-19T06:05:14.406Z,112.70
2019-05-19T06:07:43.453Z,109.65
2019-05-19T06:10:13.005Z,114.55
2019-05-19T06:12:42.043Z,111.15
2019-05-19T06:15:11.491Z,112.80
2019-05-19T06:17:40.466Z,115.17
2019-05-19T06:20:09.658Z,113.22
2019-05-19T06:22:54.622Z,112.30
2019-05-19T06:25:09.462Z,112.42
2019-05-19T06:27:38.547Z,108.75
2019-05-19T06:30:08.887Z,108.65
2019-05-19T06:32:45.759Z,110.03
2019-05-19T06:35:15.046Z,108.87
2019-05-19T06:37:44.670Z,110.12
2019-05-19T06:40:14.567Z,112.68
2019-05-19T06:42:43.920Z,110.83
2019-05-19T06:45:13.574Z,116.93
2019-05-19T06:47:42.870Z,113.05
2019-05-19T06:50:12.745Z,106.32
2019-05-19T06:52:41.881Z,106.52
2019-05-19T06:55:11.905Z,106.32
2019-05-19T06:57:41.024Z,108.83
2019-05-19T07:00:11.260Z,108.80
2019-05-19T07:02:40.337Z,109.07
2019-05-19T07:05:10.538Z,109.75
2019-05-19T07:07:39.826Z,109.57
2019-05-19T07:10:09.173Z,103.10
2019-05-19T07:12:38.641Z,105.03
2019-05-19T07:15:08.225Z,106.07
2019-05-19T07:17:37.320Z,107.10
2019-05-19T07:20:07.065Z,102.27
2019-05-19T07:22:37.655Z,106.27
2019-05-19T07:25:07.424Z,101.80
2019-05-19T07:27:36.394Z,110.17
2019-05-19T07:30:07.147Z,106.83
2019-05-19T07:32:36.179Z,104.10
2019-05-19T07:35:06.399Z,102.50
2019-05-19T07:37:35.463Z,105.40
2019-05-19T07:40:05.836Z,106.58
2019-05-19T07:42:34.855Z,103.38
2019-05-19T07:45:04.766Z,102.78
2019-05-19T07:47:33.810Z,98.75
2019-05-19T07:50:04.339Z,111.00
2019-05-19T07:52:33.734Z,103.12
2019-05-19T07:55:03.195Z,108.07
2019-05-19T07:57:32.169Z,103.15
2019-05-19T08:00:01.144Z,108.05
2019-05-19T08:02:30.492Z,103.30
2019-05-19T08:04:59.532Z,104.67
2019-05-19T08:07:28.914Z,106.55
2019-05-19T08:09:57.902Z,105.20
2019-05-19T08:12:26.946Z,102.05
2019-05-19T08:14:55.945Z,106.45
2019-05-19T08:17:25.945Z,105.07
2019-05-19T08:19:55.212Z,104.20
2019-05-19T08:22:24.524Z,102.53
2019-05-19T08:24:53.561Z,103.65
2019-05-19T08:27:22.577Z,97.00
2019-05-19T08:29:51.582Z,99.75
2019-05-19T08:32:20.644Z,96.90
2019-05-19T08:34:49.689Z,95.57
2019-05-19T08:37:18.745Z,94.25
2019-05-19T08:39:47.796Z,95.25
2019-05-19T08:42:17.087Z,96.53
2019-05-19T08:44:46.239Z,103.35
2019-05-19T08:47:15.216Z,95.92
2019-05-19T08:49:44.487Z,99.32
2019-05-19T08:52:13.532Z,98.97
2019-05-19T08:54:42.492Z,99.97
2019-05-19T08:57:11.524Z,98.65
2019-05-19T08:59:40.583Z,94.37
2019-05-19T09:02:09.560Z,100.30
2019-05-19T09:04:38.643Z,97.40
2019-05-19T09:07:07.686Z,97.75
2019-05-19T09:09:36.690Z,94.72
2019-05-19T09:12:05.729Z,94.92
2019-05-19T09:14:34.702Z,93.22
2019-05-19T09:17:03.909Z,93.60
2019-05-19T09:19:33.175Z,91.30
2019-05-19T09:22:02.241Z,89.45
2019-05-19T09:24:31.226Z,87.57
2019-05-19T09:27:00.321Z,88.80
2019-05-19T09:29:29.364Z,90.85
2019-05-19T09:31:58.404Z,91.80
2019-05-19T09:34:27.399Z,87.00
2019-05-19T09:36:56.359Z,87.00
2019-05-19T09:39:25.333Z,85.57
2019-05-19T09:41:54.406Z,86.57
2019-05-19T09:44:23.451Z,83.97
2019-05-19T09:46:52.520Z,83.42
2019-05-19T09:49:34.467Z,77.22
2019-05-19T09:52:05.980Z,80.22
2019-05-19T09:54:44.865Z,80.40
2019-05-19T09:57:06.040Z,83.00
2019-05-19T09:59:35.078Z,81.53
2019-05-19T10:02:04.133Z,76.00
2019-05-19T10:04:33.188Z,75.37
2019-05-19T10:07:03.203Z,77.03
2019-05-19T10:09:42.157Z,71.53
2019-05-19T10:12:11.273Z,70.60
2019-05-19T10:14:40.323Z,66.77
2019-05-19T10:17:09.405Z,66.22
2019-05-19T10:19:38.435Z,66.15
2019-05-19T10:22:07.884Z,63.00
2019-05-19T10:24:36.929Z,67.37
2019-05-19T10:27:05.963Z,67.80
2019-05-19T10:29:35.033Z,68.25
2019-05-19T10:32:04.239Z,66.65
2019-05-19T10:34:35.956Z,66.05
2019-05-19T10:37:05.471Z,66.90
2019-05-19T10:39:34.533Z,66.12
2019-05-19T10:42:03.692Z,75.95
2019-05-19T10:44:32.774Z,93.62
2019-05-19T10:47:01.906Z,88.20
2019-05-19T10:49:30.876Z,92.62
2019-05-19T10:52:00.014Z,64.07
2019-05-19T10:54:29.064Z,64.95
2019-05-19T10:56:58.044Z,63.33
2019-05-19T10:59:27.195Z,58.05
2019-05-19T11:01:56.541Z,60.05
2019-05-19T11:04:25.502Z,60.12
2019-05-19T11:06:54.515Z,61.10
2019-05-19T11:09:23.930Z,57.03
2019-05-19T11:11:53.028Z,128.93
2019-05-19T11:14:22.084Z,55.98
2019-05-19T11:16:51.195Z,100.30
2019-05-19T11:19:20.184Z,64.90
2019-05-19T11:21:49.162Z,49.45
2019-05-19T11:24:18.253Z,49.75
2019-05-19T11:26:47.345Z,61.37
2019-05-19T11:29:16.413Z,49.77
2019-05-19T11:31:45.439Z,42.17
2019-05-19T11:34:14.509Z,47.30
2019-05-19T11:36:44.291Z,48.02
2019-05-19T11:39:13.327Z,44.55
2019-05-19T11:41:42.372Z,48.30
2019-05-19T11:44:11.426Z,41.85
2019-05-19T11:46:40.384Z,45.95
2019-05-19T11:49:09.403Z,45.30
2019-05-19T11:51:38.791Z,43.10
2019-05-19T11:54:07.761Z,45.55
2019-05-19T11:56:36.821Z,46.90
2019-05-19T11:59:05.800Z,44.33
2019-05-19T12:01:34.850Z,47.93
2019-05-19T12:04:03.900Z,49.80
2019-05-19T12:06:39.274Z,50.17
2019-05-19T12:09:05.591Z,50.17
2019-05-19T12:11:34.640Z,50.03
2019-05-19T12:14:03.741Z,49.33
2019-05-19T12:16:32.758Z,50.55
2019-05-19T12:19:02.119Z,50.83
2019-05-19T12:21:31.111Z,48.15
2019-05-19T12:24:00.084Z,49.18
2019-05-19T12:26:29.352Z,51.10
2019-05-19T12:28:58.390Z,48.38
2019-05-19T12:31:27.441Z,48.68
2019-05-19T12:33:56.439Z,46.35
2019-05-19T12:36:25.478Z,50.67
2019-05-19T12:38:54.642Z,52.90
2019-05-19T12:41:23.692Z,49.97
2019-05-19T12:43:52.654Z,49.40
2019-05-19T12:46:21.646Z,49.53
2019-05-19T12:48:52.323Z,54.83
2019-05-19T12:51:21.461Z,50.90
2019-05-19T12:53:50.793Z,50.83
2019-05-19T12:56:20.091Z,53.97
2019-05-19T12:58:49.161Z,49.53
2019-05-19T13:01:18.209Z,52.48
2019-05-19T13:03:47.212Z,48.50
2019-05-19T13:06:16.195Z,50.47
2019-05-19T13:08:45.610Z,50.38
2019-05-19T13:11:14.600Z,51.93
2019-05-19T13:13:43.908Z,51.53
2019-05-19T13:16:13.009Z,50.30
2019-05-19T13:18:42.079Z,52.05
2019-05-19T13:21:11.100Z,54.08
2019-05-19T13:23:40.099Z,49.13
2019-05-19T13:26:09.144Z,54.13
2019-05-19T13:28:38.182Z,51.40
2019-05-19T13:31:07.171Z,51.58
2019-05-19T13:33:36.210Z,52.83
2019-05-19T13:36:05.266Z,50.48
2019-05-19T13:38:34.273Z,50.73
2019-05-19T13:41:03.389Z,56.65
2019-05-19T13:43:32.533Z,53.15
2019-05-19T13:46:01.615Z,55.90
2019-05-19T13:48:30.664Z,55.40
2019-05-19T13:50:59.646Z,58.52
2019-05-19T13:53:29.060Z,54.03
2019-05-19T13:55:58.100Z,51.15
2019-05-19T13:58:27.105Z,49.33
2019-05-19T14:00:56.098Z,50.73
2019-05-19T14:03:25.140Z,53.78
2019-05-19T14:05:54.257Z,49.55
2019-05-19T14:08:23.633Z,50.92
2019-05-19T14:10:52.750Z,57.58
2019-05-19T14:13:21.739Z,50.83
2019-05-19T14:15:50.718Z,53.25
2019-05-19T14:18:19.740Z,58.28
2019-05-19T14:20:48.724Z,63.98
2019-05-19T14:23:17.686Z,57.75
2019-05-19T14:25:46.755Z,54.35
2019-05-19T14:28:15.776Z,50.28
2019-05-19T14:30:44.877Z,54.48
2019-05-19T14:33:13.979Z,53.58
2019-05-19T14:35:43.012Z,51.13
2019-05-19T14:38:12.088Z,50.75
2019-05-19T14:40:41.117Z,54.05
2019-05-19T14:43:10.179Z,51.08
2019-05-19T14:45:39.250Z,53.48
2019-05-19T14:48:08.260Z,54.75
2019-05-19T14:50:37.300Z,57.35
2019-05-19T14:53:06.336Z,56.77
2019-05-19T14:55:35.350Z,57.95
2019-05-19T14:58:04.672Z,61.28
2019-05-19T15:00:33.751Z,54.10
2019-05-19T15:03:02.798Z,59.13
2019-05-19T15:05:33.031Z,55.25
2019-05-19T15:08:02.076Z,61.42
2019-05-19T15:10:31.046Z,54.67
2019-05-19T15:13:00.195Z,58.68
2019-05-19T15:15:29.176Z,56.37
2019-05-19T15:17:58.218Z,63.50
2019-05-19T15:20:27.344Z,71.45
2019-05-19T15:22:56.318Z,70.42
2019-05-19T15:25:25.345Z,73.70
2019-05-19T15:28:00.242Z,76.92
2019-05-19T15:30:25.291Z,79.07
2019-05-19T15:32:54.547Z,79.50
2019-05-19T15:35:23.523Z,77.92
2019-05-19T15:37:52.530Z,80.00
2019-05-19T15:40:21.877Z,80.00
2019-05-19T15:42:50.916Z,80.87
2019-05-19T15:45:20.023Z,80.15
2019-05-19T15:47:48.981Z,78.78
2019-05-19T15:50:18.038Z,82.25
2019-05-19T15:52:47.159Z,82.47
2019-05-19T15:55:16.199Z,78.40
2019-05-19T15:57:45.206Z,42.17
2019-05-19T16:00:15.336Z,21.45
2019-05-19T16:02:44.358Z,18.25
2019-05-19T16:05:13.590Z,16.10
2019-05-19T16:07:42.842Z,16.35
2019-05-19T16:10:13.100Z,13.13
2019-05-19T16:12:42.131Z,12.43
2019-05-19T16:15:11.676Z,15.08
2019-05-19T16:17:40.731Z,12.55
2019-05-19T16:20:09.855Z,12.18
2019-05-19T16:22:38.946Z,16.05
2019-05-19T16:25:08.151Z,12.37
2019-05-19T16:27:37.114Z,12.35
2019-05-19T16:30:08.645Z,11.08
2019-05-19T16:32:37.861Z,11.88
2019-05-19T16:35:07.963Z,11.83
2019-05-19T16:37:36.931Z,13.43
2019-05-19T16:40:07.522Z,14.23
2019-05-19T16:42:36.582Z,15.75
2019-05-19T16:45:07.534Z,17.92
2019-05-19T16:47:36.674Z,18.37
2019-05-19T16:50:07.323Z,25.43
2019-05-19T16:52:36.309Z,40.45
2019-05-19T16:55:23.536Z,65.50
2019-05-19T16:57:52.511Z,81.85
2019-05-19T17:00:23.996Z,84.62
2019-05-19T17:02:53.026Z,83.15
2019-05-19T17:05:22.072Z,89.72
2019-05-19T17:07:51.080Z,88.55
2019-05-19T17:10:20.593Z,96.50
2019-05-19T17:12:49.669Z,94.75
2019-05-19T17:15:19.148Z,95.90
2019-05-19T17:17:48.125Z,98.30
2019-05-19T17:20:19.540Z,95.67
2019-05-19T17:22:49.719Z,105.63
2019-05-19T17:25:18.838Z,102.92
2019-05-19T17:27:47.888Z,106.90
2019-05-19T17:30:19.264Z,107.60
2019-05-19T17:32:48.309Z,108.87
2019-05-19T17:35:17.504Z,105.25
2019-05-19T17:37:46.581Z,107.35
2019-05-19T17:40:16.306Z,103.50
2019-05-19T17:42:45.342Z,103.17
2019-05-19T17:45:14.735Z,102.75
2019-05-19T17:47:43.861Z,98.17
2019-05-19T17:50:14.945Z,104.75
2019-05-19T17:52:44.032Z,103.92
2019-05-19T17:55:14.970Z,102.60
2019-05-19T17:57:45.557Z,102.32
2019-05-19T18:00:16.287Z,108.17
2019-05-19T18:02:45.357Z,113.88
2019-05-19T18:05:14.405Z,109.90
2019-05-19T18:07:43.484Z,111.85
2019-05-19T18:10:12.536Z,118.90
2019-05-19T18:12:41.542Z,121.75
2019-05-19T18:15:10.767Z,117.13
2019-05-19T18:17:39.759Z,114.08
2019-05-19T18:20:21.526Z,117.15
2019-05-19T18:22:39.990Z,119.57
2019-05-19T18:25:11.530Z,114.67
2019-05-19T18:27:40.590Z,118.53
2019-05-19T18:30:09.697Z,109.15
2019-05-19T18:32:38.717Z,110.00
2019-05-19T18:35:08.141Z,117.65
2019-05-19T18:37:37.193Z,114.15
2019-05-19T18:40:09.613Z,112.32
2019-05-19T18:42:38.644Z,106.32
2019-05-19T18:45:08.604Z,106.60
2019-05-19T18:47:37.603Z,107.40
2019-05-19T18:50:07.896Z,111.35
2019-05-19T18:52:36.959Z,105.78
2019-05-19T18:55:09.033Z,108.78
2019-05-19T18:57:38.485Z,107.58
2019-05-19T19:00:08.477Z,111.90
2019-05-19T19:02:37.671Z,121.70
2019-05-19T19:05:07.840Z,123.95
2019-05-19T19:07:53.838Z,122.87
2019-05-19T19:10:22.922Z,122.58
2019-05-19T19:12:52.330Z,134.10
2019-05-19T19:15:21.308Z,134.27
2019-05-19T19:17:50.370Z,136.85
2019-05-19T19:20:19.417Z,130.97
2019-05-19T19:22:48.516Z,134.20
2019-05-19T19:25:17.628Z,142.68
2019-05-19T19:27:46.611Z,144.75
2019-05-19T19:30:17.125Z,136.35
2019-05-19T19:32:46.175Z,134.30
2019-05-19T19:35:15.404Z,142.57
2019-05-19T19:37:44.718Z,148.62
2019-05-19T19:40:14.131Z,144.47
2019-05-19T19:42:43.131Z,150.53
2019-05-19T19:45:12.578Z,148.85
2019-05-19T19:47:41.663Z,148.07
2019-05-19T19:50:10.885Z,153.45
2019-05-19T19:52:40.003Z,150.93
2019-05-19T19:55:09.146Z,146.60
2019-05-19T19:57:38.185Z,156.78
2019-05-19T20:00:17.715Z,147.02
2019-05-19T20:02:38.384Z,152.10
2019-05-19T20:05:07.574Z,157.80
2019-05-19T20:07:36.644Z,151.32
2019-05-19T20:10:09.139Z,144.80
2019-05-19T20:12:38.253Z,146.50
2019-05-19T20:15:07.361Z,144.60
2019-05-19T20:17:36.635Z,140.47
2019-05-19T20:20:06.993Z,144.68
2019-05-19T20:22:36.121Z,137.72
2019-05-19T20:25:06.685Z,138.88
2019-05-19T20:27:36.391Z,140.73
2019-05-19T20:30:06.399Z,138.77
2019-05-19T20:32:35.436Z,133.45
2019-05-19T20:35:05.394Z,133.03
2019-05-19T20:37:34.402Z,135.03
2019-05-19T20:40:04.930Z,137.75
2019-05-19T20:42:33.959Z,119.47
2019-05-19T20:45:03.040Z,127.47
2019-05-19T20:47:32.345Z,127.78
2019-05-19T20:50:01.389Z,119.70
2019-05-19T20:52:30.411Z,121.28
2019-05-19T20:54:59.455Z,114.03
2019-05-19T20:57:28.442Z,101.55
2019-05-19T20:59:57.426Z,108.03
2019-05-19T21:02:26.512Z,98.30
2019-05-19T21:04:55.473Z,91.80
2019-05-19T21:07:24.530Z,90.38
2019-05-19T21:09:53.585Z,95.38
2019-05-19T21:12:22.552Z,85.62
2019-05-19T21:14:51.622Z,90.80
2019-05-19T21:17:20.928Z,86.45
2019-05-19T21:19:49.891Z,92.55
2019-05-19T21:22:18.875Z,90.67
2019-05-19T21:24:48.048Z,99.87
2019-05-19T21:27:17.127Z,95.03
2019-05-19T21:29:46.107Z,97.60
2019-05-19T21:32:15.163Z,94.75
2019-05-19T21:34:44.136Z,98.10
2019-05-19T21:37:13.391Z,99.85
2019-05-19T21:39:42.466Z,96.37
2019-05-19T21:42:11.434Z,103.30
2019-05-19T21:44:40.485Z,99.60
2019-05-19T21:47:09.488Z,110.63
2019-05-19T21:49:38.449Z,98.40
2019-05-19T21:52:07.465Z,98.85
2019-05-19T21:54:36.550Z,106.07
2019-05-19T21:57:05.593Z,103.40
2019-05-19T21:59:34.672Z,106.12
2019-05-19T22:02:04.534Z,109.83
2019-05-19T22:04:33.598Z,103.85
2019-05-19T22:07:07.152Z,97.55
2019-05-19T22:09:36.201Z,101.60
2019-05-19T22:12:05.183Z,100.20
2019-05-19T22:14:34.180Z,103.30
2019-05-19T22:17:03.261Z,104.23
2019-05-19T22:19:32.229Z,109.03
2019-05-19T22:22:01.209Z,108.78
2019-05-19T22:24:30.287Z,102.65
2019-05-19T22:26:59.338Z,107.43
2019-05-19T22:29:28.419Z,102.85
2019-05-19T22:31:57.392Z,121.20
2019-05-19T22:34:26.358Z,114.92
2019-05-19T22:36:55.348Z,128.85
2019-05-19T22:39:24.692Z,128.65
2019-05-19T22:41:53.693Z,142.70
2019-05-19T22:44:22.676Z,144.10
2019-05-19T22:46:51.919Z,145.68
2019-05-19T22:49:20.919Z,172.32
2019-05-19T22:51:49.952Z,176.22
2019-05-19T22:54:18.952Z,178.60
2019-05-19T22:56:47.920Z,178.62
2019-05-19T22:59:19.660Z,193.35
2019-05-19T23:01:51.712Z,187.37
2019-05-19T23:04:18.248Z,194.02
2019-05-19T23:06:47.268Z,197.05
2019-05-19T23:09:16.250Z,188.22
2019-05-19T23:11:45.278Z,183.55
2019-05-19T23:14:14.279Z,178.23
2019-05-19T23:16:43.249Z,175.87
2019-05-19T23:19:12.262Z,176.00
2019-05-19T23:21:41.225Z,180.20
2019-05-19T23:24:10.223Z,171.00
2019-05-19T23:26:39.479Z,164.07
2019-05-19T23:29:08.712Z,174.00
2019-05-19T23:31:37.699Z,168.13
2019-05-19T23:34:06.740Z,180.37
2019-05-19T23:36:35.784Z,173.22
2019-05-19T23:39:06.215Z,163.62
2019-05-19T23:41:35.216Z,169.93
2019-05-19T23:44:04.275Z,167.40
2019-05-19T23:46:33.349Z,152.00
2019-05-19T23:49:02.306Z,155.03
2019-05-19T23:51:31.376Z,160.03
2019-05-19T23:54:00.422Z,150.38
2019-05-19T23:56:29.396Z,147.93
2019-05-19T23:58:58.382Z,156.15
